Time;durP1;ratioP1;P1;durP2;ratioP2;P2;SDS_P1;SDS_P2;PMS_P1;PMS_P2;Temp;Humidity;BMP_temperature;BMP_pressure;BME280_temperature;BME280_humidity;BME280_pressure;Samples;Min_cycle;Max_cycle;Signal;HPM_P1;HPM_P2
2022/07/06 00:05:07;;;;;;;0.75;0.20;;;13.90;99.90;;;;;;20809306;28;20471;-85
2022/07/06 00:15:09;;;;;;;4.45;0.50;;;13.80;99.90;;;;;;20806616;28;20043;-85
2022/07/06 00:25:10;;;;;;;0.85;0.30;;;13.70;99.90;;;;;;20786366;28;20529;-86
2022/07/06 00:35:11;;;;;;;3.20;0.30;;;13.50;99.90;;;;;;20805570;28;20388;-86
2022/07/06 00:45:14;;;;;;;0.77;0.52;;;13.50;99.90;;;;;;20889017;28;20510;-85
2022/07/06 00:55:19;;;;;;;0.30;0.10;;;13.40;99.90;;;;;;20890888;28;20036;-86
2022/07/06 01:05:21;;;;;;;1.05;0.35;;;13.40;99.90;;;;;;20907266;28;20044;-86
2022/07/06 01:15:24;;;;;;;1.38;0.20;;;13.30;99.90;;;;;;20881057;28;20159;-86
2022/07/06 01:25:25;;;;;;;0.95;0.25;;;13.20;99.90;;;;;;20861871;28;20045;-85
2022/07/06 01:35:31;;;;;;;0.93;0.30;;;13.10;99.90;;;;;;20867809;28;20483;-85
2022/07/06 01:45:33;;;;;;;1.00;0.40;;;13.20;99.90;;;;;;20869456;28;20415;-85
2022/07/06 01:55:35;;;;;;;0.63;0.30;;;13.10;99.90;;;;;;20883136;28;20502;-85
2022/07/06 02:05:36;;;;;;;1.27;0.45;;;13.00;99.90;;;;;;20872588;28;20040;-85
2022/07/06 02:15:37;;;;;;;0.75;0.40;;;13.00;99.90;;;;;;20869549;28;20080;-87
2022/07/06 02:25:38;;;;;;;0.43;0.22;;;12.90;99.90;;;;;;20858844;28;20107;-87
2022/07/06 02:35:42;;;;;;;0.57;0.20;;;12.90;99.90;;;;;;20853449;28;20593;-87
2022/07/06 02:45:43;;;;;;;0.68;0.35;;;12.80;99.90;;;;;;20886377;28;20056;-85
2022/07/06 02:55:45;;;;;;;1.05;0.20;;;12.90;99.90;;;;;;20874892;28;20507;-87
2022/07/06 03:05:48;;;;;;;0.45;0.20;;;13.00;99.90;;;;;;20857542;28;20132;-85
2022/07/06 03:15:49;;;;;;;0.77;0.50;;;13.10;99.90;;;;;;20857523;28;20676;-86
2022/07/06 03:25:50;;;;;;;0.63;0.20;;;13.20;99.90;;;;;;20864023;28;21010;-86
2022/07/06 03:35:51;;;;;;;0.73;0.20;;;13.40;99.90;;;;;;20870225;28;20783;-85
2022/07/06 03:45:52;;;;;;;2.17;0.57;;;13.30;99.90;;;;;;20864308;28;20280;-86
2022/07/06 04:06:13;;;;;;;0.40;0.20;;;13.30;99.90;;;;;;20901958;28;20676;-85
2022/07/06 04:16:15;;;;;;;2.17;0.20;;;13.30;99.90;;;;;;20884213;28;20037;-85
2022/07/06 04:26:16;;;;;;;1.50;0.30;;;13.50;99.90;;;;;;20864567;28;20491;-84
2022/07/06 04:36:18;;;;;;;0.77;0.20;;;13.70;99.90;;;;;;20866728;28;20051;-85
2022/07/06 04:46:19;;;;;;;0.80;0.30;;;13.80;99.90;;;;;;20894089;28;20036;-85
2022/07/06 04:56:20;;;;;;;0.63;0.20;;;13.90;99.90;;;;;;20880318;28;20405;-85
2022/07/06 05:06:21;;;;;;;0.70;0.30;;;14.10;99.90;;;;;;20879392;28;20603;-85
2022/07/06 05:16:22;;;;;;;0.52;0.10;;;14.10;99.90;;;;;;20872461;28;21584;-85
2022/07/06 05:26:23;;;;;;;0.35;0.20;;;14.30;99.90;;;;;;20863675;28;20385;-85
2022/07/06 05:36:24;;;;;;;0.95;0.20;;;14.40;99.90;;;;;;20880320;28;20041;-85
2022/07/06 05:46:28;;;;;;;0.73;0.20;;;14.60;99.90;;;;;;20885869;28;20052;-85
2022/07/06 05:56:29;;;;;;;0.55;0.20;;;15.00;99.90;;;;;;20856804;28;20532;-85
2022/07/06 06:06:31;;;;;;;0.52;0.15;;;15.50;99.90;;;;;;20872928;28;20052;-85
2022/07/06 06:16:34;;;;;;;0.60;0.10;;;15.60;99.90;;;;;;20877420;28;20505;-85
2022/07/06 06:26:35;;;;;;;0.13;0.05;;;16.10;99.90;;;;;;20889569;28;20067;-84
2022/07/06 06:36:36;;;;;;;0.50;0.15;;;16.50;99.90;;;;;;20863153;28;20064;-83
2022/07/06 06:46:38;;;;;;;0.40;0.17;;;16.90;99.90;;;;;;20870934;28;20374;-84
2022/07/06 06:56:39;;;;;;;0.50;0.17;;;17.10;99.90;;;;;;20880004;28;20052;-83
2022/07/06 07:06:40;;;;;;;0.25;0.10;;;16.80;99.90;;;;;;20866648;28;20041;-83
2022/07/06 07:16:41;;;;;;;0.70;0.45;;;16.90;99.90;;;;;;20884285;28;20040;-84
2022/07/06 07:26:42;;;;;;;0.73;0.10;;;17.20;99.90;;;;;;20864006;28;20052;-83
2022/07/06 07:36:43;;;;;;;0.20;0.10;;;17.40;99.90;;;;;;20863580;28;20382;-84
2022/07/06 07:46:44;;;;;;;1.48;0.10;;;17.40;99.90;;;;;;20921912;28;20105;-83
2022/07/06 07:56:45;;;;;;;0.17;0.03;;;17.40;99.90;;;;;;20915233;28;20052;-83
2022/07/06 08:06:47;;;;;;;0.22;0.10;;;17.70;99.90;;;;;;20876186;28;20045;-83
2022/07/06 08:16:48;;;;;;;0.85;0.00;;;17.90;99.90;;;;;;20898305;28;20044;-83
2022/07/06 08:26:49;;;;;;;2.72;0.10;;;17.90;99.90;;;;;;20919547;28;20036;-82
2022/07/06 08:36:50;;;;;;;0.20;0.00;;;18.00;99.90;;;;;;20909354;28;20053;-82
2022/07/06 08:46:54;;;;;;;0.20;0.08;;;18.50;99.90;;;;;;20897949;28;20543;-84
2022/07/06 08:56:55;;;;;;;0.90;0.20;;;18.80;99.90;;;;;;20903302;28;20508;-83
2022/07/06 09:07:00;;;;;;;0.30;0.10;;;19.00;99.90;;;;;;20886297;28;20055;-84
2022/07/06 09:17:06;;;;;;;0.32;0.10;;;19.10;99.90;;;;;;20889560;28;20515;-84
2022/07/06 09:27:16;;;;;;;0.73;0.10;;;19.10;99.90;;;;;;20904990;28;20128;-83
2022/07/06 09:37:17;;;;;;;0.40;0.10;;;19.40;99.90;;;;;;20886618;28;20053;-83
2022/07/06 09:47:19;;;;;;;1.27;0.10;;;19.20;99.90;;;;;;20924486;28;20139;-84
2022/07/06 09:57:22;;;;;;;0.30;0.10;;;19.40;99.90;;;;;;20906371;28;20044;-83
2022/07/06 10:07:24;;;;;;;0.52;0.10;;;19.50;99.90;;;;;;20903183;28;20476;-84
2022/07/06 10:17:26;;;;;;;0.50;0.13;;;19.60;99.90;;;;;;20887867;28;20090;-84
2022/07/06 10:27:28;;;;;;;0.13;0.08;;;19.90;99.90;;;;;;20895770;28;20426;-84
2022/07/06 10:37:32;;;;;;;0.30;0.10;;;20.00;99.90;;;;;;20914134;28;20129;-83
2022/07/06 10:47:35;;;;;;;0.20;0.10;;;20.00;99.90;;;;;;20907646;28;20037;-83
2022/07/06 10:57:52;;;;;;;0.45;0.10;;;20.30;99.90;;;;;;20893161;28;20040;-84
2022/07/06 11:08:00;;;;;;;0.20;0.00;;;20.70;99.90;;;;;;20932113;28;20055;-83
2022/07/06 11:18:12;;;;;;;0.28;0.10;;;21.00;99.90;;;;;;20933417;28;20056;-82
2022/07/06 11:28:15;;;;;;;0.45;0.15;;;21.40;99.90;;;;;;20901779;28;20208;-83
2022/07/06 11:38:26;;;;;;;0.73;0.20;;;21.70;99.60;;;;;;20929252;28;20100;-82
2022/07/06 11:48:27;;;;;;;3.38;0.28;;;21.80;99.90;;;;;;20924245;28;20543;-82
2022/07/06 11:58:31;;;;;;;0.30;0.10;;;21.90;98.80;;;;;;20926967;28;20049;-82
2022/07/06 12:08:41;;;;;;;0.52;0.13;;;22.10;99.00;;;;;;20928238;28;20047;-82
2022/07/06 12:18:47;;;;;;;0.35;0.10;;;22.30;99.00;;;;;;20931357;28;20040;-82
2022/07/06 12:29:08;;;;;;;0.13;0.05;;;22.40;97.40;;;;;;20921672;28;20412;-82
2022/07/06 12:39:14;;;;;;;1.08;0.20;;;22.40;98.40;;;;;;20917252;28;20040;-82
2022/07/06 12:49:17;;;;;;;2.65;0.25;;;22.80;98.10;;;;;;20889027;28;20492;-84
2022/07/06 12:59:22;;;;;;;0.52;0.10;;;22.90;96.20;;;;;;20906172;28;20826;-83
2022/07/06 13:09:23;;;;;;;0.82;0.68;;;22.60;98.20;;;;;;20896152;28;20489;-82
2022/07/06 13:19:24;;;;;;;0.35;0.10;;;22.90;98.60;;;;;;20914180;28;20047;-82
2022/07/06 13:29:26;;;;;;;0.55;0.20;;;22.80;98.30;;;;;;20906300;28;20049;-83
2022/07/06 13:39:27;;;;;;;0.43;0.20;;;22.50;99.20;;;;;;20912161;28;20052;-82
2022/07/06 13:49:28;;;;;;;0.68;0.20;;;22.20;99.10;;;;;;20898358;28;20360;-82
2022/07/06 13:59:29;;;;;;;1.48;0.40;;;21.90;99.60;;;;;;20876062;28;20146;-81
2022/07/06 14:09:33;;;;;;;0.47;0.20;;;21.80;99.60;;;;;;20904138;28;20040;-82
2022/07/06 14:19:34;;;;;;;0.77;0.20;;;21.60;99.90;;;;;;20868615;28;20048;-82
2022/07/06 14:29:35;;;;;;;1.00;0.30;;;21.40;99.90;;;;;;20877623;28;20072;-82
2022/07/06 14:39:36;;;;;;;1.55;0.45;;;21.30;99.90;;;;;;20870353;28;20079;-82
2022/07/06 14:49:38;;;;;;;1.30;0.52;;;21.00;99.90;;;;;;20892661;28;20187;-82
2022/07/06 14:59:39;;;;;;;0.60;0.35;;;21.10;99.90;;;;;;20867498;28;20037;-82
2022/07/06 15:09:40;;;;;;;1.02;0.50;;;21.30;99.90;;;;;;20858585;28;20804;-80
2022/07/06 15:19:43;;;;;;;2.40;1.00;;;21.10;99.90;;;;;;20866909;28;20052;-82
2022/07/06 15:29:44;;;;;;;2.80;0.50;;;20.90;99.90;;;;;;20882082;28;20048;-83
2022/07/06 15:39:46;;;;;;;2.20;1.00;;;20.70;99.90;;;;;;20875972;28;20068;-83
2022/07/06 15:49:48;;;;;;;0.77;0.40;;;20.60;99.90;;;;;;20875418;28;20768;-83
2022/07/06 15:59:49;;;;;;;1.50;0.68;;;20.40;99.90;;;;;;20897245;28;20067;-83
2022/07/06 16:09:54;;;;;;;1.02;0.50;;;20.40;99.90;;;;;;20899868;28;20047;-83
2022/07/06 16:19:58;;;;;;;1.73;0.50;;;20.40;99.90;;;;;;20893594;28;20041;-83
2022/07/06 16:30:00;;;;;;;1.15;0.43;;;20.30;99.90;;;;;;20894403;28;20519;-83
2022/07/06 16:40:02;;;;;;;1.17;0.60;;;20.10;99.90;;;;;;20917035;28;20825;-83
2022/07/06 16:50:04;;;;;;;1.60;0.35;;;20.10;99.90;;;;;;20895140;28;20033;-83
2022/07/06 17:00:05;;;;;;;0.77;0.20;;;19.80;99.90;;;;;;20903949;28;20036;-83
2022/07/06 17:10:07;;;;;;;0.85;0.20;;;19.70;99.90;;;;;;20891591;28;20044;-83
2022/07/06 17:20:08;;;;;;;1.48;0.20;;;19.70;99.90;;;;;;20890995;28;20094;-83
2022/07/06 17:30:10;;;;;;;0.65;0.35;;;19.50;99.90;;;;;;20889503;28;20050;-85
2022/07/06 17:40:11;;;;;;;1.58;0.68;;;19.40;99.90;;;;;;20901322;28;20356;-82
2022/07/06 17:50:12;;;;;;;1.10;0.40;;;19.40;99.90;;;;;;20916286;28;20628;-82
2022/07/06 18:00:14;;;;;;;1.13;0.50;;;19.40;99.90;;;;;;20911062;28;20041;-82
2022/07/06 18:10:15;;;;;;;1.15;0.30;;;19.30;99.90;;;;;;20885063;28;20580;-84
2022/07/06 18:20:16;;;;;;;0.75;0.32;;;19.30;99.90;;;;;;20911147;28;20304;-82
2022/07/06 18:30:20;;;;;;;1.60;0.38;;;19.20;99.90;;;;;;20878256;28;20036;-83
2022/07/06 18:40:21;;;;;;;1.00;0.30;;;19.20;99.90;;;;;;20913818;28;20064;-85
2022/07/06 18:50:22;;;;;;;1.20;0.35;;;19.10;99.90;;;;;;20922757;28;20048;-83
2022/07/06 19:00:23;;;;;;;0.73;0.30;;;19.00;99.90;;;;;;20892370;28;20059;-82
2022/07/06 19:10:25;;;;;;;1.35;0.28;;;19.10;99.90;;;;;;20919426;28;20901;-82
2022/07/06 19:20:26;;;;;;;1.30;0.47;;;19.00;99.90;;;;;;20898028;28;20044;-82
2022/07/06 19:30:27;;;;;;;1.23;0.63;;;19.00;99.90;;;;;;20908844;28;20044;-83
2022/07/06 19:40:28;;;;;;;2.70;0.30;;;19.00;99.90;;;;;;20908081;28;20051;-82
2022/07/06 19:50:29;;;;;;;1.33;0.40;;;19.10;99.90;;;;;;20861440;28;20044;-83
2022/07/06 20:00:31;;;;;;;0.93;0.52;;;18.90;99.90;;;;;;20886387;28;20650;-83
2022/07/06 20:10:33;;;;;;;1.10;0.50;;;18.80;99.90;;;;;;20921392;28;20040;-83
2022/07/06 20:20:34;;;;;;;0.80;0.30;;;18.90;99.90;;;;;;20906165;28;20044;-83
2022/07/06 20:30:35;;;;;;;1.15;0.65;;;18.90;99.90;;;;;;20938138;28;20071;-83
2022/07/06 20:40:36;;;;;;;1.55;0.60;;;19.00;99.90;;;;;;20898316;28;20041;-82
2022/07/06 20:50:37;;;;;;;1.80;0.55;;;18.80;99.90;;;;;;20888522;28;20044;-83
2022/07/06 21:00:39;;;;;;;1.55;0.50;;;18.80;99.90;;;;;;20882925;28;20041;-83
2022/07/06 21:10:40;;;;;;;0.80;0.35;;;18.70;99.90;;;;;;20900968;28;20044;-83
2022/07/06 21:20:41;;;;;;;1.23;0.80;;;18.70;99.90;;;;;;20882674;28;20060;-83
2022/07/06 21:30:43;;;;;;;0.98;0.40;;;18.60;99.90;;;;;;20864027;28;20064;-83
2022/07/06 21:40:44;;;;;;;1.48;0.63;;;18.60;99.90;;;;;;20880461;28;20108;-83
2022/07/06 21:50:45;;;;;;;2.75;0.68;;;18.60;99.90;;;;;;20884128;28;20518;-83
2022/07/06 22:00:47;;;;;;;1.67;0.70;;;18.50;99.90;;;;;;20886609;28;20039;-83
2022/07/06 22:10:48;;;;;;;1.58;0.70;;;18.40;99.90;;;;;;20911469;28;20413;-83
2022/07/06 22:20:49;;;;;;;2.53;0.70;;;18.30;99.90;;;;;;20910593;28;20067;-83
2022/07/06 22:30:50;;;;;;;2.85;0.82;;;18.20;99.90;;;;;;20894189;28;20539;-83
2022/07/06 22:41:01;;;;;;;1.77;0.60;;;18.20;99.90;;;;;;20872855;28;20044;-83
2022/07/06 22:51:02;;;;;;;2.13;1.20;;;18.20;99.90;;;;;;20874827;28;20203;-83
2022/07/06 23:01:04;;;;;;;1.70;0.60;;;18.20;99.90;;;;;;20872325;28;20041;-83
2022/07/06 23:11:05;;;;;;;2.60;1.10;;;18.30;99.90;;;;;;20872389;28;20059;-84
2022/07/06 23:21:06;;;;;;;1.50;0.75;;;18.20;99.90;;;;;;20884112;28;20039;-84
2022/07/06 23:31:08;;;;;;;3.25;1.50;;;18.20;99.90;;;;;;20865947;28;20048;-83
2022/07/06 23:41:09;;;;;;;2.65;1.10;;;18.20;99.90;;;;;;20909846;28;20056;-83
2022/07/06 23:51:10;;;;;;;1.70;0.80;;;18.20;99.90;;;;;;20891303;28;20158;-83
